Aérodrome :
LOGIN :

S'inscrire | Disclaimer

   EN    FR    IT 

 










Légende :    VFR   VFR Marginal   IFR   IFR Intensif   IFR Très Intensif
Visi : 
Plafond : 
>= 8 km
>= 3000ft
5 à 8 km
1000 à 3000 ft
1500m à 5 km
500 à 1000 ft
800 à 1500m
200 à 500 ft
< 800m
< 200 ft
Symboles :   Orages  Brouillard  Fortes neiges  Fortes précipitations  Vent > 20 kt
SIGMETs :   Divers  Orages  Givrage  Turbulence  Onde Orograph.  Cendres Volcan.






- Altitude de l'aérodrome : 236 ft
- Code IATA : MMX


ESMS - Malmö Sturup

DERNIER METAR :
  • 121250Z 24005KT 9999 FEW007 SCT012 BKN017 05/04 Q0997

METARs EXPIRÉS :
  • 121220Z 19004KT 9999 BKN008 OVC016 04/04 Q0997
  • 121150Z 19004KT 9999 SCT008 BKN022 OVC031 04/04 Q0998
  • 121120Z 18004KT 9999 -RA SCT004 BKN008 OVC016 04/04 Q0998
  • 121050Z 15004KT 9999 FEW004 SCT009 OVC019 04/04 Q0998
  • 121020Z 17005KT 9999 BKN004 03/03 Q0998

TAF TAF ESMS
Valide du 12 à 12h jusqu'au 13 à 12h UTC


121101Z 1212/1312 18005KT 9999 -RADZ SCT007 BKN015
TEMPO 1212/1218 BKN008
TEMPO 1218/1224 SHRA BKN010 SCT015CB
BECMG 1221/1224 16012KT
TEMPO 1300/1312 15015G25KT BKN012



MET'MAP, la Météo Aéronautique d'un coup d'oeil ! - Copyright ORBIFLY Décembre 2007 - Disclaimer

ORBIFLY MET'MAP TEAM :

Programmation & Développement : Alexandra Zaïnal
Sur une idée originale de : Baudouin d'Aumeries
Assistance à la programmation : Marc-Olivier Méhu
Soutien technique & logistique : Manuel Goepfert

Contact : metmap@orbifly.com




SOURCES & CREDITS :

   NOAA